Hlavní strana
METAR-TAF:

METAR-TAF

Letiště :

Pittsburg, Kansas, Spojené státy americké

zeměpisná šířka: 37-26-58N, zeměpisná délka: 094-43-52W, výška: 290 m

Aktuální stav počasí

Zpráva byla vytvořena před 10 minutami, v 11:35 UTC
Severozápadní vítr 7 kt
Teplota 0°C
Vlhkost vzduchu 93%
Tlak 1014 hPa
Viditelnost: 6.4 km
Oblačno až skoro zataženo ve výšce 900 ft
Zataženo ve výšce 1400 ft
slabé sněžení

METAR: KPTS 241135Z AUTO 31007KT 4SM -SN BKN009 OVC014 00/M01 A2993 RMK AO2 T00001006

Čas: 05:45 (11:45 UTC)


TAF: chybějící

Stav a předpovědi počasí z více než 4 000 letišť (zprávy METAR a TAF).

Červené a žluté tečky na mapě představují dostupné meteorologické stanice.

Když kurzor umístíte na tečku, zobrazí se název stanice.

Pak kliknutím zobrazíte stav a předpověď počasí.

Chcete-li změnit mapu, kliknutím na zelené tlačítko se znaménkem +mapu přiblížíte, kliknutím na zelené tlačítko se znaménkem – mapu oddálíte a kliknutím na zelené šipky přejdete na sousední mapy.


METAR-TAF: